createdAt,value
2017-12-01T00:01:20.856Z,1.50
2017-12-01T00:03:49.136Z,1.50
2017-12-01T00:06:16.572Z,1.40
2017-12-01T00:08:44.058Z,1.40
2017-12-01T00:11:12.292Z,1.50
2017-12-01T00:13:39.767Z,1.40
2017-12-01T00:16:07.226Z,1.40
2017-12-01T00:18:34.723Z,1.50
2017-12-01T00:21:02.212Z,1.40
2017-12-01T00:23:29.692Z,1.40
2017-12-01T00:25:57.170Z,1.30
2017-12-01T00:28:25.430Z,1.20
2017-12-01T00:30:53.059Z,1.20
2017-12-01T00:33:20.547Z,1.10
2017-12-01T00:35:48.053Z,1.10
2017-12-01T00:38:16.291Z,1.10
2017-12-01T00:40:43.775Z,1.10
2017-12-01T00:43:11.336Z,1.10
2017-12-01T00:45:38.828Z,1.10
2017-12-01T00:48:06.286Z,1.10
2017-12-01T00:50:33.767Z,1.10
2017-12-01T00:53:01.228Z,1.00
2017-12-01T00:55:28.707Z,1.00
2017-12-01T00:57:56.220Z,1.00
2017-12-01T01:00:24.467Z,0.90
2017-12-01T01:02:52.741Z,0.90
2017-12-01T01:05:20.203Z,0.90
2017-12-01T01:07:47.722Z,1.00
2017-12-01T01:10:15.188Z,1.00
2017-12-01T01:12:42.682Z,1.00
2017-12-01T01:15:10.920Z,1.00
2017-12-01T01:17:38.406Z,1.00
2017-12-01T01:20:05.880Z,1.10
2017-12-01T01:22:34.157Z,1.10
2017-12-01T01:25:02.425Z,1.10
2017-12-01T01:27:30.660Z,1.10
2017-12-01T01:29:58.163Z,1.10
2017-12-01T01:32:26.406Z,1.10
2017-12-01T01:34:53.940Z,1.10
2017-12-01T01:37:21.447Z,1.10
2017-12-01T01:39:50.418Z,1.20
2017-12-01T01:42:17.919Z,1.20
2017-12-01T01:44:45.393Z,1.20
2017-12-01T01:47:13.288Z,1.20
2017-12-01T01:49:40.758Z,1.20
2017-12-01T01:52:08.352Z,1.20
2017-12-01T01:54:36.617Z,1.30
2017-12-01T01:57:04.865Z,1.20
2017-12-01T01:59:32.368Z,1.20
2017-12-01T02:02:00.647Z,1.20
2017-12-01T02:04:28.910Z,1.30
2017-12-01T02:06:56.378Z,1.20
2017-12-01T02:09:24.663Z,1.30
2017-12-01T02:11:52.938Z,1.30
2017-12-01T02:14:21.174Z,1.30
2017-12-01T02:16:48.646Z,1.20
2017-12-01T02:19:16.149Z,1.20
2017-12-01T02:21:43.678Z,1.20
2017-12-01T02:24:11.143Z,1.20
2017-12-01T02:26:39.376Z,1.10
2017-12-01T02:29:06.856Z,1.10
2017-12-01T02:31:34.391Z,1.10
2017-12-01T02:34:01.922Z,1.10
2017-12-01T02:36:29.350Z,1.10
2017-12-01T02:38:57.607Z,1.00
2017-12-01T02:41:25.074Z,1.00
2017-12-01T02:43:52.571Z,1.00
2017-12-01T02:46:20.080Z,1.00
2017-12-01T02:48:47.546Z,1.00
2017-12-01T02:51:15.029Z,1.10
2017-12-01T02:53:43.335Z,1.10
2017-12-01T02:56:10.802Z,1.10
2017-12-01T02:58:38.312Z,1.10
2017-12-01T03:01:05.816Z,1.10
2017-12-01T03:03:33.291Z,1.10
2017-12-01T03:06:00.766Z,1.10
2017-12-01T03:08:28.300Z,1.10
2017-12-01T03:10:55.783Z,1.10
2017-12-01T03:13:23.305Z,1.10
2017-12-01T03:15:50.794Z,1.20
2017-12-01T03:18:18.321Z,1.20
2017-12-01T03:20:45.807Z,1.30
2017-12-01T03:23:13.344Z,1.30
2017-12-01T03:25:40.829Z,1.30
2017-12-01T03:28:08.316Z,1.30
2017-12-01T03:30:35.817Z,1.30
2017-12-01T03:33:03.347Z,1.30
2017-12-01T03:35:31.585Z,1.40
2017-12-01T03:37:59.080Z,1.40
2017-12-01T03:40:27.307Z,1.40
2017-12-01T03:42:54.778Z,1.40
2017-12-01T03:45:22.274Z,1.40
2017-12-01T03:47:50.535Z,1.30
2017-12-01T03:50:18.086Z,1.30
2017-12-01T03:52:45.582Z,1.20
2017-12-01T03:55:13.075Z,1.30
2017-12-01T03:57:40.594Z,1.30
2017-12-01T04:00:08.852Z,1.30
2017-12-01T04:02:36.387Z,1.30
2017-12-01T04:05:03.907Z,1.30
2017-12-01T04:07:31.405Z,1.30
2017-12-01T04:09:58.921Z,1.30
2017-12-01T04:12:26.391Z,1.30
2017-12-01T04:14:53.992Z,1.30
2017-12-01T04:17:21.480Z,1.20
2017-12-01T04:19:49.738Z,1.30
2017-12-01T04:22:17.215Z,1.30
2017-12-01T04:24:45.465Z,1.30
2017-12-01T04:27:12.948Z,1.30
2017-12-01T04:29:41.186Z,1.30
2017-12-01T04:32:08.706Z,1.30
2017-12-01T04:34:36.183Z,1.30
2017-12-01T04:37:03.679Z,1.30
2017-12-01T04:39:31.165Z,1.30
2017-12-01T04:41:59.411Z,1.30
2017-12-01T04:44:26.926Z,1.30
2017-12-01T04:46:54.426Z,1.30
2017-12-01T04:49:21.915Z,1.30
2017-12-01T04:51:50.221Z,1.30
2017-12-01T04:54:17.700Z,1.30
2017-12-01T04:56:45.186Z,1.30
2017-12-01T04:59:12.654Z,1.30
2017-12-01T05:01:40.157Z,1.30
2017-12-01T05:04:07.631Z,1.30
2017-12-01T05:06:35.115Z,1.30
2017-12-01T05:09:02.774Z,1.30
2017-12-01T05:11:30.262Z,1.30
2017-12-01T05:13:58.568Z,1.40
2017-12-01T05:16:26.026Z,1.30
2017-12-01T05:18:53.549Z,1.40
2017-12-01T05:21:21.033Z,1.40
2017-12-01T05:23:48.563Z,1.40
2017-12-01T05:26:16.046Z,1.40
2017-12-01T05:28:43.580Z,1.40
2017-12-01T05:31:12.613Z,1.40
2017-12-01T05:33:40.107Z,1.40
2017-12-01T05:36:07.641Z,1.40
2017-12-01T05:38:35.152Z,1.40
2017-12-01T05:41:02.648Z,1.40
2017-12-01T05:43:30.592Z,1.40
2017-12-01T05:45:58.093Z,1.40
2017-12-01T05:48:25.562Z,1.40
2017-12-01T05:50:53.085Z,1.40
2017-12-01T05:53:20.561Z,1.40
2017-12-01T05:55:48.478Z,1.40
2017-12-01T05:58:15.985Z,1.40
2017-12-01T06:00:44.490Z,1.50
2017-12-01T06:03:14.337Z,1.40
2017-12-01T06:05:43.110Z,1.40
2017-12-01T06:08:10.779Z,1.40
2017-12-01T06:10:38.254Z,1.40
2017-12-01T06:13:05.729Z,1.40
2017-12-01T06:15:33.994Z,1.40
2017-12-01T06:18:02.231Z,1.40
2017-12-01T06:20:29.727Z,1.40
2017-12-01T06:22:57.224Z,1.40
2017-12-01T06:25:24.703Z,1.50
2017-12-01T06:27:52.174Z,1.40
2017-12-01T06:30:19.681Z,1.50
2017-12-01T06:32:47.911Z,1.50
2017-12-01T06:35:15.413Z,1.50
2017-12-01T06:37:43.654Z,1.40
2017-12-01T06:40:11.129Z,1.40
2017-12-01T06:42:39.394Z,1.30
2017-12-01T06:45:06.889Z,1.30
2017-12-01T06:47:35.118Z,1.30
2017-12-01T06:50:02.576Z,1.30
2017-12-01T06:52:30.055Z,1.30
2017-12-01T06:54:57.527Z,1.30
2017-12-01T06:57:25.775Z,1.40
2017-12-01T06:59:53.232Z,1.40
2017-12-01T07:02:20.717Z,1.40
2017-12-01T07:04:48.931Z,1.40
2017-12-01T07:07:16.409Z,1.40
2017-12-01T07:09:43.908Z,1.40
2017-12-01T07:12:12.169Z,1.40
2017-12-01T07:14:39.637Z,1.40
2017-12-01T07:17:08.060Z,1.40
2017-12-01T07:19:35.526Z,1.40
2017-12-01T07:22:03.027Z,1.40
2017-12-01T07:24:31.303Z,1.50
2017-12-01T07:27:07.716Z,1.50
2017-12-01T07:29:35.192Z,1.50
2017-12-01T07:32:02.672Z,1.50
2017-12-01T07:34:30.159Z,1.50
2017-12-01T07:36:58.433Z,1.60
2017-12-01T07:39:26.656Z,1.50
2017-12-01T07:41:54.152Z,1.50
2017-12-01T07:44:25.657Z,1.60
2017-12-01T07:46:53.319Z,1.60
2017-12-01T07:49:20.800Z,1.60
2017-12-01T07:51:48.286Z,1.60
2017-12-01T07:54:15.762Z,1.60
2017-12-01T07:56:44.003Z,1.60
2017-12-01T07:59:11.488Z,1.60
2017-12-01T08:01:38.959Z,1.60
2017-12-01T08:04:06.464Z,1.50
2017-12-01T08:06:33.943Z,1.50
2017-12-01T08:09:01.430Z,1.60
2017-12-01T08:11:29.685Z,1.50
2017-12-01T08:13:57.158Z,1.50
2017-12-01T08:16:37.467Z,1.60
2017-12-01T08:19:07.586Z,1.60
2017-12-01T08:21:46.878Z,1.60
2017-12-01T08:24:27.060Z,1.70
2017-12-01T08:26:54.546Z,1.70
2017-12-01T08:29:22.024Z,1.60
2017-12-01T08:31:49.521Z,1.70
2017-12-01T08:34:17.759Z,1.80
2017-12-01T08:36:45.259Z,1.80
2017-12-01T08:39:12.725Z,1.80
2017-12-01T08:41:40.226Z,1.80
2017-12-01T08:44:07.710Z,1.80
2017-12-01T08:46:35.172Z,1.80
2017-12-01T08:49:03.443Z,1.90
2017-12-01T08:51:31.688Z,1.80
2017-12-01T08:53:59.188Z,1.80
2017-12-01T08:56:27.441Z,1.90
2017-12-01T08:58:54.964Z,1.90
2017-12-01T09:01:23.030Z,1.90
2017-12-01T09:03:50.550Z,1.90
2017-12-01T09:06:18.023Z,1.90
2017-12-01T09:08:46.351Z,2.00
2017-12-01T09:11:13.851Z,2.00
2017-12-01T09:13:42.150Z,2.10
2017-12-01T09:16:09.663Z,2.00
2017-12-01T09:18:37.124Z,2.10
2017-12-01T09:21:04.597Z,2.10
2017-12-01T09:23:32.122Z,2.10
2017-12-01T09:25:59.611Z,2.20
2017-12-01T09:28:27.094Z,2.10
2017-12-01T09:30:55.370Z,2.10
2017-12-01T09:33:23.598Z,2.10
2017-12-01T09:35:51.103Z,2.10
2017-12-01T09:38:19.388Z,2.10
2017-12-01T09:40:47.615Z,2.10
2017-12-01T09:43:15.138Z,2.10
2017-12-01T09:45:42.699Z,2.10
2017-12-01T09:48:10.180Z,2.10
2017-12-01T09:50:37.644Z,2.10
2017-12-01T09:53:05.124Z,2.20
2017-12-01T09:55:32.611Z,2.20
2017-12-01T09:58:00.930Z,2.20
2017-12-01T10:00:28.457Z,2.20
2017-12-01T10:02:56.709Z,2.20
2017-12-01T10:05:24.286Z,2.20
2017-12-01T10:07:52.534Z,2.30
2017-12-01T10:10:20.050Z,2.30
2017-12-01T10:12:47.629Z,2.40
2017-12-01T10:15:15.106Z,2.40
2017-12-01T10:17:42.636Z,2.40
2017-12-01T10:20:10.335Z,2.50
2017-12-01T10:22:37.899Z,2.50
2017-12-01T10:25:05.390Z,2.60
2017-12-01T10:27:33.887Z,2.60
2017-12-01T10:30:01.452Z,2.60
2017-12-01T10:32:28.920Z,2.60
2017-12-01T10:34:56.431Z,2.60
2017-12-01T10:37:23.921Z,2.50
2017-12-01T10:39:51.443Z,2.60
2017-12-01T10:42:18.955Z,2.50
2017-12-01T10:44:46.467Z,2.50
2017-12-01T10:47:14.712Z,2.60
2017-12-01T10:49:42.337Z,2.60
2017-12-01T10:52:09.821Z,2.60
2017-12-01T10:54:37.340Z,2.50
2017-12-01T10:57:05.775Z,2.50
2017-12-01T10:59:33.274Z,2.50
2017-12-01T11:02:01.561Z,2.50
2017-12-01T11:04:29.120Z,2.50
2017-12-01T11:06:56.704Z,2.60
2017-12-01T11:09:24.168Z,2.60
2017-12-01T11:11:51.706Z,2.60
2017-12-01T11:14:19.401Z,2.60
2017-12-01T11:16:46.922Z,2.60
2017-12-01T11:19:15.163Z,2.60
2017-12-01T11:21:42.714Z,2.60
2017-12-01T11:24:11.187Z,2.70
2017-12-01T11:26:38.671Z,2.70
2017-12-01T11:29:06.149Z,2.70
2017-12-01T11:31:34.403Z,2.70
2017-12-01T11:34:01.875Z,2.70
2017-12-01T11:36:30.109Z,2.80
2017-12-01T11:38:57.684Z,2.80
2017-12-01T11:41:25.153Z,2.80
2017-12-01T11:43:52.635Z,2.70
2017-12-01T11:46:21.972Z,2.80
2017-12-01T11:48:49.445Z,2.80
2017-12-01T11:51:16.909Z,2.80
2017-12-01T11:53:44.463Z,2.80
2017-12-01T11:56:11.954Z,2.80
2017-12-01T11:58:39.417Z,2.90
2017-12-01T12:01:06.908Z,2.80
2017-12-01T12:03:34.403Z,2.80
2017-12-01T12:06:01.887Z,2.80
2017-12-01T12:08:30.881Z,2.80
2017-12-01T12:10:58.387Z,2.80
2017-12-01T12:13:25.858Z,2.70
2017-12-01T12:15:53.379Z,2.70
2017-12-01T12:18:22.604Z,2.60
2017-12-01T12:20:50.836Z,2.60
2017-12-01T12:23:18.315Z,2.60
2017-12-01T12:25:45.859Z,2.60
2017-12-01T12:28:13.331Z,2.60
2017-12-01T12:30:41.597Z,2.50
2017-12-01T12:33:10.594Z,2.50
2017-12-01T12:35:38.862Z,2.50
2017-12-01T12:38:06.375Z,2.50
2017-12-01T12:40:33.926Z,2.50
2017-12-01T12:43:01.405Z,2.50
2017-12-01T12:45:28.929Z,2.50
2017-12-01T12:47:57.535Z,2.50
2017-12-01T12:50:25.049Z,2.50
2017-12-01T12:52:52.540Z,2.50
2017-12-01T12:55:20.093Z,2.40
2017-12-01T12:57:48.775Z,2.40
2017-12-01T13:00:17.030Z,2.40
2017-12-01T13:02:46.295Z,2.40
2017-12-01T13:05:13.875Z,2.40
2017-12-01T13:07:42.152Z,2.40
2017-12-01T13:10:09.712Z,2.40
2017-12-01T13:12:37.469Z,2.40
2017-12-01T13:15:04.952Z,2.40
2017-12-01T13:17:32.415Z,2.40
2017-12-01T13:20:00.662Z,2.40
2017-12-01T13:22:28.161Z,2.40
2017-12-01T13:24:56.466Z,2.50
2017-12-01T13:27:23.986Z,2.50
2017-12-01T13:29:52.241Z,2.50
2017-12-01T13:32:19.951Z,2.50
2017-12-01T13:34:47.434Z,2.50
2017-12-01T13:37:14.975Z,2.50
2017-12-01T13:39:42.513Z,2.50
2017-12-01T13:42:10.789Z,2.50
2017-12-01T13:44:39.101Z,2.60
2017-12-01T13:47:06.593Z,2.60
2017-12-01T13:49:34.111Z,2.60
2017-12-01T13:52:01.585Z,2.60
2017-12-01T13:54:29.123Z,2.70
2017-12-01T13:56:56.612Z,2.70
2017-12-01T13:59:24.103Z,2.70
2017-12-01T14:01:51.615Z,2.70
2017-12-01T14:04:19.132Z,2.80
2017-12-01T14:06:47.384Z,2.90
2017-12-01T14:09:15.098Z,2.90
2017-12-01T14:11:42.765Z,2.90
2017-12-01T14:14:10.310Z,3.00
2017-12-01T14:16:38.754Z,3.20
2017-12-01T14:19:06.344Z,3.30
2017-12-01T14:21:34.613Z,3.00
2017-12-01T14:24:02.091Z,3.00
2017-12-01T14:26:31.355Z,2.90
2017-12-01T14:28:58.873Z,2.80
2017-12-01T14:31:26.339Z,2.70
2017-12-01T14:33:53.895Z,2.60
2017-12-01T14:36:21.370Z,2.40
2017-12-01T14:38:48.866Z,2.40
2017-12-01T14:41:17.110Z,2.20
2017-12-01T14:43:44.600Z,2.20
2017-12-01T14:46:12.076Z,2.10
2017-12-01T14:48:40.305Z,2.00
2017-12-01T14:51:07.834Z,2.00
2017-12-01T14:53:35.320Z,1.90
2017-12-01T14:56:02.800Z,1.80
2017-12-01T14:58:30.264Z,1.80
2017-12-01T15:00:57.771Z,1.70
2017-12-01T15:03:25.235Z,1.70
2017-12-01T15:05:52.690Z,1.70
2017-12-01T15:08:20.200Z,1.70
2017-12-01T15:10:47.671Z,1.70
2017-12-01T15:13:15.918Z,1.70
2017-12-01T15:15:43.390Z,1.70
2017-12-01T15:18:10.898Z,1.70
2017-12-01T15:20:38.468Z,1.70
2017-12-01T15:23:06.780Z,1.70
2017-12-01T15:25:34.262Z,1.70
2017-12-01T15:28:02.505Z,1.70
2017-12-01T15:30:29.995Z,1.60
2017-12-01T15:32:58.923Z,1.60
2017-12-01T15:35:26.398Z,1.60
2017-12-01T15:37:53.937Z,1.50
2017-12-01T15:40:21.426Z,1.50
2017-12-01T15:42:48.928Z,1.40
2017-12-01T15:45:17.181Z,1.40
2017-12-01T15:47:44.661Z,1.40
2017-12-01T15:50:12.931Z,1.30
2017-12-01T15:52:41.186Z,1.30
2017-12-01T15:55:08.682Z,1.30
2017-12-01T15:57:36.187Z,1.30
2017-12-01T16:00:03.703Z,1.30
2017-12-01T16:02:31.182Z,1.30
2017-12-01T16:04:58.666Z,1.30
2017-12-01T16:07:26.188Z,1.30
2017-12-01T16:09:53.985Z,1.30
2017-12-01T16:12:22.135Z,1.20
2017-12-01T16:14:50.487Z,1.30
2017-12-01T16:17:18.790Z,1.30
2017-12-01T16:19:46.861Z,1.30
2017-12-01T16:22:14.679Z,1.30
2017-12-01T16:24:43.175Z,1.40
2017-12-01T16:27:10.642Z,1.40
2017-12-01T16:29:38.442Z,1.40
2017-12-01T16:32:05.955Z,1.50
2017-12-01T16:34:34.310Z,1.50
2017-12-01T16:37:01.791Z,1.50
2017-12-01T16:39:29.339Z,1.50
2017-12-01T16:41:57.594Z,1.40
2017-12-01T16:44:25.445Z,1.40
2017-12-01T16:46:52.987Z,1.40
2017-12-01T16:49:20.499Z,1.40
2017-12-01T16:51:47.999Z,1.40
2017-12-01T16:54:15.789Z,1.50
2017-12-01T16:56:43.372Z,1.50
2017-12-01T16:59:11.492Z,1.60
2017-12-01T17:01:40.121Z,1.70
2017-12-01T17:04:07.606Z,1.70
2017-12-01T17:06:35.097Z,1.80
2017-12-01T17:09:02.573Z,1.90
2017-12-01T17:11:30.071Z,1.90
2017-12-01T17:13:57.566Z,2.00
2017-12-01T17:16:25.544Z,2.00
2017-12-01T17:18:53.075Z,2.00
2017-12-01T17:21:20.601Z,2.00
2017-12-01T17:26:50.572Z,2.00
2017-12-01T17:29:18.036Z,2.00
2017-12-01T17:31:45.550Z,2.00
2017-12-01T17:34:13.040Z,2.00
2017-12-01T17:36:40.793Z,2.00
2017-12-01T17:39:08.334Z,2.00
2017-12-01T17:41:35.868Z,2.00
2017-12-01T17:44:03.414Z,2.00
2017-12-01T17:46:31.553Z,2.00
2017-12-01T17:48:59.145Z,2.00
2017-12-01T17:51:26.682Z,2.00
2017-12-01T17:53:54.452Z,2.00
2017-12-01T17:56:23.312Z,2.00
2017-12-01T17:58:50.947Z,2.00
2017-12-01T18:01:18.487Z,1.90
2017-12-01T18:03:45.963Z,1.90
2017-12-01T18:06:13.434Z,1.90
2017-12-01T18:08:40.913Z,1.90
2017-12-01T18:11:08.422Z,1.90
2017-12-01T18:13:36.935Z,1.90
2017-12-01T18:16:04.446Z,1.90
2017-12-01T18:18:32.709Z,1.90
2017-12-01T18:21:00.954Z,1.90
2017-12-01T18:23:28.514Z,1.90
2017-12-01T18:25:56.009Z,2.00
2017-12-01T18:28:24.275Z,2.00
2017-12-01T18:30:51.767Z,2.00
2017-12-01T18:33:19.412Z,2.00
2017-12-01T18:35:47.683Z,2.00
2017-12-01T18:38:16.055Z,2.00
2017-12-01T18:40:44.315Z,2.00
2017-12-01T18:43:11.835Z,2.00
2017-12-01T18:45:39.397Z,2.00
2017-12-01T18:48:07.002Z,2.10
2017-12-01T18:50:36.048Z,2.10
2017-12-01T18:53:04.302Z,2.10
2017-12-01T18:55:32.754Z,2.10
2017-12-01T18:58:00.275Z,2.10
2017-12-01T19:00:27.747Z,2.10
2017-12-01T19:02:55.501Z,2.00
2017-12-01T19:05:23.050Z,2.00
2017-12-01T19:07:50.530Z,2.10
2017-12-01T19:10:18.090Z,2.10
2017-12-01T19:12:45.587Z,2.00
2017-12-01T19:15:14.016Z,1.90
2017-12-01T19:17:41.601Z,1.90
2017-12-01T19:20:09.171Z,1.90
2017-12-01T19:22:36.785Z,1.90
2017-12-01T19:25:04.318Z,1.90
2017-12-01T19:27:32.594Z,1.90
2017-12-01T19:30:01.043Z,1.90
2017-12-01T19:32:29.211Z,1.90
2017-12-01T19:34:56.716Z,1.90
2017-12-01T19:37:25.143Z,1.90
2017-12-01T19:39:53.473Z,1.90
2017-12-01T19:42:21.798Z,1.90
2017-12-01T19:44:49.592Z,1.90
2017-12-01T19:47:17.055Z,1.90
2017-12-01T19:49:45.026Z,1.80
2017-12-01T19:52:12.754Z,1.80
2017-12-01T19:54:40.280Z,1.90
2017-12-01T19:57:09.973Z,1.80
2017-12-01T19:59:37.935Z,1.80
2017-12-01T20:02:06.455Z,1.80
2017-12-01T20:04:34.355Z,1.80
2017-12-01T20:07:03.903Z,1.80
2017-12-01T20:09:31.460Z,1.90
2017-12-01T20:11:59.870Z,1.90
2017-12-01T20:14:28.777Z,1.90
2017-12-01T20:16:57.361Z,1.90
2017-12-01T20:19:25.017Z,1.90
2017-12-01T20:21:55.908Z,1.90
2017-12-01T20:24:23.958Z,1.90
2017-12-01T20:26:52.255Z,2.00
2017-12-01T20:29:22.226Z,1.90
2017-12-01T20:31:51.144Z,1.90
2017-12-01T20:34:18.907Z,1.90
2017-12-01T20:36:47.436Z,1.80
2017-12-01T20:39:15.942Z,1.80
2017-12-01T20:41:44.879Z,1.80
2017-12-01T20:44:12.819Z,1.80
2017-12-01T20:46:41.220Z,1.80
2017-12-01T20:49:10.286Z,1.70
2017-12-01T20:51:37.875Z,1.70
2017-12-01T20:54:05.911Z,1.70
2017-12-01T20:56:34.175Z,1.70
2017-12-01T20:59:02.518Z,1.60
2017-12-01T21:01:30.165Z,1.60
2017-12-01T21:03:58.813Z,1.60
2017-12-01T21:06:26.994Z,1.60
2017-12-01T21:08:54.730Z,1.60
2017-12-01T21:11:22.513Z,1.70
2017-12-01T21:13:50.341Z,1.70
2017-12-01T21:16:17.821Z,1.70
2017-12-01T21:18:47.353Z,1.70
2017-12-01T21:21:14.855Z,1.70
2017-12-01T21:23:42.569Z,1.80
2017-12-01T21:26:10.870Z,1.70
2017-12-01T21:28:39.336Z,1.80
2017-12-01T21:31:07.114Z,1.80
2017-12-01T21:33:34.634Z,1.70
2017-12-01T21:36:02.203Z,1.70
2017-12-01T21:38:29.831Z,1.70
2017-12-01T21:40:57.416Z,1.70
2017-12-01T21:43:26.451Z,1.70
2017-12-01T21:45:54.164Z,1.60
2017-12-01T21:48:21.949Z,1.60
2017-12-01T21:50:49.589Z,1.60
2017-12-01T21:53:17.098Z,1.50
2017-12-01T21:55:44.622Z,1.50
2017-12-01T21:58:12.172Z,1.40
2017-12-01T22:00:40.493Z,1.40
2017-12-01T22:03:08.507Z,1.40
2017-12-01T22:05:36.069Z,1.40
2017-12-01T22:08:04.434Z,1.30
2017-12-01T22:10:32.015Z,1.20
2017-12-01T22:13:00.351Z,1.20
2017-12-01T22:15:28.641Z,1.20
2017-12-01T22:17:56.718Z,1.20
2017-12-01T22:20:25.471Z,1.20
2017-12-01T22:22:52.999Z,1.20
2017-12-01T22:25:21.254Z,1.20
2017-12-01T22:27:48.798Z,1.20
2017-12-01T22:30:16.292Z,1.20
2017-12-01T22:32:44.556Z,1.10
2017-12-01T22:35:12.092Z,1.10
2017-12-01T22:37:39.583Z,1.10
2017-12-01T22:40:07.843Z,1.10
2017-12-01T22:42:35.374Z,1.10
2017-12-01T22:45:02.813Z,1.10
2017-12-01T22:47:30.298Z,1.10
2017-12-01T22:49:57.914Z,1.10
2017-12-01T22:52:25.384Z,1.20
2017-12-01T22:54:52.945Z,1.10
2017-12-01T22:57:20.434Z,1.10
2017-12-01T22:59:47.905Z,1.10
2017-12-01T23:02:15.467Z,1.10
2017-12-01T23:04:42.957Z,1.10
2017-12-01T23:07:11.200Z,1.10
2017-12-01T23:09:38.680Z,1.10
2017-12-01T23:12:06.159Z,1.10
2017-12-01T23:14:33.622Z,1.10
2017-12-01T23:17:01.158Z,1.00
2017-12-01T23:19:28.639Z,1.00
2017-12-01T23:21:56.107Z,0.90
2017-12-01T23:24:23.573Z,0.90
2017-12-01T23:26:51.050Z,0.80
2017-12-01T23:29:18.520Z,0.80
2017-12-01T23:31:45.974Z,0.70
2017-12-01T23:34:13.460Z,0.70
2017-12-01T23:36:40.923Z,0.70
2017-12-01T23:39:08.412Z,0.60
2017-12-01T23:41:35.898Z,0.60
2017-12-01T23:44:03.368Z,0.60
2017-12-01T23:46:30.870Z,0.70
2017-12-01T23:48:59.172Z,0.70
2017-12-01T23:51:26.651Z,0.70
2017-12-01T23:53:54.203Z,0.60
2017-12-01T23:56:21.694Z,0.50
2017-12-01T23:58:49.217Z,0.50
